sensor_id;sensor_type;location;lat;lon;timestamp;P1;durP1;ratioP1;P2;durP2;ratioP2
47669;SDS011;33408;52.062;11.722;2023-07-08T00:00:41;7.32;;;3.80;;
47669;SDS011;33408;52.062;11.722;2023-07-08T00:03:08;7.65;;;3.40;;
47669;SDS011;33408;52.062;11.722;2023-07-08T00:05:34;6.30;;;3.58;;
47669;SDS011;33408;52.062;11.722;2023-07-08T00:08:03;7.88;;;3.85;;
47669;SDS011;33408;52.062;11.722;2023-07-08T00:10:30;6.63;;;3.22;;
47669;SDS011;33408;52.062;11.722;2023-07-08T00:12:57;8.95;;;3.92;;
47669;SDS011;33408;52.062;11.722;2023-07-08T00:15:25;6.45;;;3.45;;
47669;SDS011;33408;52.062;11.722;2023-07-08T00:17:53;8.48;;;4.03;;
47669;SDS011;33408;52.062;11.722;2023-07-08T00:20:21;6.50;;;3.83;;
47669;SDS011;33408;52.062;11.722;2023-07-08T00:22:54;6.57;;;4.05;;
47669;SDS011;33408;52.062;11.722;2023-07-08T00:25:23;8.05;;;4.07;;
47669;SDS011;33408;52.062;11.722;2023-07-08T00:27:49;8.82;;;6.05;;
47669;SDS011;33408;52.062;11.722;2023-07-08T00:30:20;6.82;;;4.00;;
47669;SDS011;33408;52.062;11.722;2023-07-08T00:32:48;10.73;;;5.28;;
47669;SDS011;33408;52.062;11.722;2023-07-08T00:35:19;8.95;;;4.93;;
47669;SDS011;33408;52.062;11.722;2023-07-08T00:37:48;7.75;;;4.88;;
47669;SDS011;33408;52.062;11.722;2023-07-08T00:40:19;8.85;;;4.97;;
47669;SDS011;33408;52.062;11.722;2023-07-08T00:42:48;9.02;;;5.20;;
47669;SDS011;33408;52.062;11.722;2023-07-08T00:45:15;8.82;;;5.03;;
47669;SDS011;33408;52.062;11.722;2023-07-08T00:47:53;7.57;;;4.68;;
47669;SDS011;33408;52.062;11.722;2023-07-08T00:50:21;9.05;;;5.50;;
47669;SDS011;33408;52.062;11.722;2023-07-08T00:52:48;9.50;;;5.00;;
47669;SDS011;33408;52.062;11.722;2023-07-08T00:55:15;8.23;;;4.80;;
47669;SDS011;33408;52.062;11.722;2023-07-08T00:57:42;6.85;;;4.50;;
47669;SDS011;33408;52.062;11.722;2023-07-08T01:00:14;8.90;;;5.13;;
47669;SDS011;33408;52.062;11.722;2023-07-08T01:02:43;7.20;;;4.90;;
47669;SDS011;33408;52.062;11.722;2023-07-08T01:05:13;6.72;;;3.95;;
47669;SDS011;33408;52.062;11.722;2023-07-08T01:07:45;6.10;;;4.20;;
47669;SDS011;33408;52.062;11.722;2023-07-08T01:10:18;9.20;;;4.78;;
47669;SDS011;33408;52.062;11.722;2023-07-08T01:12:49;9.50;;;5.00;;
47669;SDS011;33408;52.062;11.722;2023-07-08T01:15:21;9.57;;;5.13;;
47669;SDS011;33408;52.062;11.722;2023-07-08T01:17:52;7.57;;;4.40;;
47669;SDS011;33408;52.062;11.722;2023-07-08T01:20:20;7.35;;;4.70;;
47669;SDS011;33408;52.062;11.722;2023-07-08T01:22:48;8.90;;;4.63;;
47669;SDS011;33408;52.062;11.722;2023-07-08T01:25:15;8.70;;;4.40;;
47669;SDS011;33408;52.062;11.722;2023-07-08T01:27:42;7.57;;;4.32;;
47669;SDS011;33408;52.062;11.722;2023-07-08T01:30:12;7.10;;;4.72;;
47669;SDS011;33408;52.062;11.722;2023-07-08T01:32:42;7.30;;;4.90;;
47669;SDS011;33408;52.062;11.722;2023-07-08T01:35:12;9.23;;;4.28;;
47669;SDS011;33408;52.062;11.722;2023-07-08T01:37:40;6.82;;;4.22;;
47669;SDS011;33408;52.062;11.722;2023-07-08T01:40:19;10.43;;;4.75;;
47669;SDS011;33408;52.062;11.722;2023-07-08T01:42:50;9.38;;;4.85;;
47669;SDS011;33408;52.062;11.722;2023-07-08T01:45:18;8.80;;;4.60;;
47669;SDS011;33408;52.062;11.722;2023-07-08T01:47:46;9.23;;;4.63;;
47669;SDS011;33408;52.062;11.722;2023-07-08T01:50:17;9.63;;;4.53;;
47669;SDS011;33408;52.062;11.722;2023-07-08T01:52:45;9.57;;;4.45;;
47669;SDS011;33408;52.062;11.722;2023-07-08T01:55:12;7.43;;;4.97;;
47669;SDS011;33408;52.062;11.722;2023-07-08T01:57:40;7.63;;;4.28;;
47669;SDS011;33408;52.062;11.722;2023-07-08T02:00:07;7.93;;;4.63;;
47669;SDS011;33408;52.062;11.722;2023-07-08T02:02:34;7.50;;;4.18;;
47669;SDS011;33408;52.062;11.722;2023-07-08T02:05:01;7.70;;;4.30;;
47669;SDS011;33408;52.062;11.722;2023-07-08T02:07:27;9.88;;;4.20;;
47669;SDS011;33408;52.062;11.722;2023-07-08T02:09:54;7.22;;;4.13;;
47669;SDS011;33408;52.062;11.722;2023-07-08T02:12:20;6.82;;;4.05;;
47669;SDS011;33408;52.062;11.722;2023-07-08T02:14:48;9.00;;;4.45;;
47669;SDS011;33408;52.062;11.722;2023-07-08T02:17:15;7.78;;;4.18;;
47669;SDS011;33408;52.062;11.722;2023-07-08T02:19:42;8.18;;;4.28;;
47669;SDS011;33408;52.062;11.722;2023-07-08T02:22:08;9.82;;;4.28;;
47669;SDS011;33408;52.062;11.722;2023-07-08T02:24:35;7.13;;;3.97;;
47669;SDS011;33408;52.062;11.722;2023-07-08T02:27:02;7.13;;;4.03;;
47669;SDS011;33408;52.062;11.722;2023-07-08T02:29:29;7.53;;;3.92;;
47669;SDS011;33408;52.062;11.722;2023-07-08T02:31:58;8.27;;;4.40;;
47669;SDS011;33408;52.062;11.722;2023-07-08T02:34:25;7.05;;;4.28;;
47669;SDS011;33408;52.062;11.722;2023-07-08T02:36:51;7.45;;;4.20;;
47669;SDS011;33408;52.062;11.722;2023-07-08T02:39:18;6.63;;;4.40;;
47669;SDS011;33408;52.062;11.722;2023-07-08T02:41:44;7.70;;;4.75;;
47669;SDS011;33408;52.062;11.722;2023-07-08T02:44:11;9.20;;;5.65;;
47669;SDS011;33408;52.062;11.722;2023-07-08T02:46:37;8.90;;;4.55;;
47669;SDS011;33408;52.062;11.722;2023-07-08T02:49:05;8.07;;;4.70;;
47669;SDS011;33408;52.062;11.722;2023-07-08T02:51:32;7.45;;;4.80;;
47669;SDS011;33408;52.062;11.722;2023-07-08T02:53:59;8.98;;;5.00;;
47669;SDS011;33408;52.062;11.722;2023-07-08T02:56:25;7.53;;;5.05;;
47669;SDS011;33408;52.062;11.722;2023-07-08T02:58:52;8.23;;;4.32;;
47669;SDS011;33408;52.062;11.722;2023-07-08T03:01:19;8.43;;;4.72;;
47669;SDS011;33408;52.062;11.722;2023-07-08T03:03:46;7.80;;;4.18;;
47669;SDS011;33408;52.062;11.722;2023-07-08T03:06:15;7.90;;;4.43;;
47669;SDS011;33408;52.062;11.722;2023-07-08T03:08:41;7.05;;;4.75;;
47669;SDS011;33408;52.062;11.722;2023-07-08T03:11:08;7.05;;;4.38;;
47669;SDS011;33408;52.062;11.722;2023-07-08T03:13:38;11.60;;;4.88;;
47669;SDS011;33408;52.062;11.722;2023-07-08T03:16:05;8.13;;;4.68;;
47669;SDS011;33408;52.062;11.722;2023-07-08T03:18:37;8.70;;;4.53;;
47669;SDS011;33408;52.062;11.722;2023-07-08T03:21:11;7.60;;;4.55;;
47669;SDS011;33408;52.062;11.722;2023-07-08T03:23:40;8.65;;;5.53;;
47669;SDS011;33408;52.062;11.722;2023-07-08T03:26:07;8.05;;;5.40;;
47669;SDS011;33408;52.062;11.722;2023-07-08T03:28:33;8.10;;;4.97;;
47669;SDS011;33408;52.062;11.722;2023-07-08T03:31:00;7.63;;;4.97;;
47669;SDS011;33408;52.062;11.722;2023-07-08T03:33:27;9.60;;;4.90;;
47669;SDS011;33408;52.062;11.722;2023-07-08T03:35:54;9.05;;;5.03;;
47669;SDS011;33408;52.062;11.722;2023-07-08T03:38:21;9.45;;;5.20;;
47669;SDS011;33408;52.062;11.722;2023-07-08T03:40:49;7.72;;;4.28;;
47669;SDS011;33408;52.062;11.722;2023-07-08T03:43:16;8.20;;;4.70;;
47669;SDS011;33408;52.062;11.722;2023-07-08T03:45:43;12.10;;;4.72;;
47669;SDS011;33408;52.062;11.722;2023-07-08T03:48:10;9.40;;;5.43;;
47669;SDS011;33408;52.062;11.722;2023-07-08T03:50:37;7.80;;;4.80;;
47669;SDS011;33408;52.062;11.722;2023-07-08T03:53:04;8.75;;;5.40;;
47669;SDS011;33408;52.062;11.722;2023-07-08T03:55:31;6.20;;;4.38;;
47669;SDS011;33408;52.062;11.722;2023-07-08T03:57:59;6.88;;;4.05;;
47669;SDS011;33408;52.062;11.722;2023-07-08T04:00:25;6.93;;;4.32;;
47669;SDS011;33408;52.062;11.722;2023-07-08T04:02:52;10.55;;;4.18;;
47669;SDS011;33408;52.062;11.722;2023-07-08T04:05:20;6.03;;;3.67;;
47669;SDS011;33408;52.062;11.722;2023-07-08T04:07:48;9.18;;;4.05;;
47669;SDS011;33408;52.062;11.722;2023-07-08T04:10:15;8.70;;;3.60;;
47669;SDS011;33408;52.062;11.722;2023-07-08T04:12:42;5.80;;;3.50;;
47669;SDS011;33408;52.062;11.722;2023-07-08T04:15:11;5.38;;;3.15;;
47669;SDS011;33408;52.062;11.722;2023-07-08T04:17:40;7.85;;;4.20;;
47669;SDS011;33408;52.062;11.722;2023-07-08T04:20:10;7.78;;;3.30;;
47669;SDS011;33408;52.062;11.722;2023-07-08T04:22:39;7.30;;;3.78;;
47669;SDS011;33408;52.062;11.722;2023-07-08T04:25:06;6.20;;;3.72;;
47669;SDS011;33408;52.062;11.722;2023-07-08T04:27:33;7.38;;;3.38;;
47669;SDS011;33408;52.062;11.722;2023-07-08T04:29:59;7.70;;;4.15;;
47669;SDS011;33408;52.062;11.722;2023-07-08T04:32:29;6.75;;;3.25;;
47669;SDS011;33408;52.062;11.722;2023-07-08T04:34:56;9.30;;;4.00;;
47669;SDS011;33408;52.062;11.722;2023-07-08T04:37:22;9.90;;;4.10;;
47669;SDS011;33408;52.062;11.722;2023-07-08T04:39:49;6.65;;;3.90;;
47669;SDS011;33408;52.062;11.722;2023-07-08T04:42:15;5.68;;;3.40;;
47669;SDS011;33408;52.062;11.722;2023-07-08T04:44:42;7.65;;;3.80;;
47669;SDS011;33408;52.062;11.722;2023-07-08T04:47:09;7.95;;;3.75;;
47669;SDS011;33408;52.062;11.722;2023-07-08T04:49:40;7.55;;;3.80;;
47669;SDS011;33408;52.062;11.722;2023-07-08T04:52:08;6.78;;;3.80;;
47669;SDS011;33408;52.062;11.722;2023-07-08T04:54:35;9.18;;;4.80;;
47669;SDS011;33408;52.062;11.722;2023-07-08T04:57:02;8.48;;;4.10;;
47669;SDS011;33408;52.062;11.722;2023-07-08T04:59:29;7.70;;;4.00;;
47669;SDS011;33408;52.062;11.722;2023-07-08T05:01:59;6.93;;;4.03;;
47669;SDS011;33408;52.062;11.722;2023-07-08T05:04:26;6.78;;;4.43;;
47669;SDS011;33408;52.062;11.722;2023-07-08T05:06:54;8.15;;;4.00;;
47669;SDS011;33408;52.062;11.722;2023-07-08T05:09:20;8.85;;;4.32;;
47669;SDS011;33408;52.062;11.722;2023-07-08T05:11:50;8.63;;;4.30;;
47669;SDS011;33408;52.062;11.722;2023-07-08T05:14:17;6.47;;;4.00;;
47669;SDS011;33408;52.062;11.722;2023-07-08T05:16:44;8.52;;;4.25;;
47669;SDS011;33408;52.062;11.722;2023-07-08T05:19:10;8.57;;;4.60;;
47669;SDS011;33408;52.062;11.722;2023-07-08T05:21:37;7.38;;;4.20;;
47669;SDS011;33408;52.062;11.722;2023-07-08T05:24:05;6.47;;;4.10;;
47669;SDS011;33408;52.062;11.722;2023-07-08T05:26:32;7.72;;;5.00;;
47669;SDS011;33408;52.062;11.722;2023-07-08T05:28:59;7.43;;;4.43;;
47669;SDS011;33408;52.062;11.722;2023-07-08T05:31:26;7.30;;;4.93;;
47669;SDS011;33408;52.062;11.722;2023-07-08T05:33:53;9.73;;;5.32;;
47669;SDS011;33408;52.062;11.722;2023-07-08T05:36:19;9.32;;;4.78;;
47669;SDS011;33408;52.062;11.722;2023-07-08T05:38:46;9.38;;;4.45;;
47669;SDS011;33408;52.062;11.722;2023-07-08T05:41:14;7.07;;;4.32;;
47669;SDS011;33408;52.062;11.722;2023-07-08T05:43:40;6.82;;;4.28;;
47669;SDS011;33408;52.062;11.722;2023-07-08T05:46:07;9.00;;;4.57;;
47669;SDS011;33408;52.062;11.722;2023-07-08T05:48:34;7.22;;;4.53;;
47669;SDS011;33408;52.062;11.722;2023-07-08T05:51:01;7.70;;;4.38;;
47669;SDS011;33408;52.062;11.722;2023-07-08T05:53:28;8.30;;;4.45;;
47669;SDS011;33408;52.062;11.722;2023-07-08T05:55:55;8.05;;;4.55;;
47669;SDS011;33408;52.062;11.722;2023-07-08T05:58:23;9.20;;;4.55;;
47669;SDS011;33408;52.062;11.722;2023-07-08T06:00:54;7.72;;;4.80;;
47669;SDS011;33408;52.062;11.722;2023-07-08T06:03:22;7.85;;;4.43;;
47669;SDS011;33408;52.062;11.722;2023-07-08T06:05:48;8.68;;;4.63;;
47669;SDS011;33408;52.062;11.722;2023-07-08T06:08:15;7.78;;;4.72;;
47669;SDS011;33408;52.062;11.722;2023-07-08T06:10:42;7.88;;;4.28;;
47669;SDS011;33408;52.062;11.722;2023-07-08T06:13:09;6.97;;;4.50;;
47669;SDS011;33408;52.062;11.722;2023-07-08T06:15:38;7.40;;;4.40;;
47669;SDS011;33408;52.062;11.722;2023-07-08T06:18:05;7.60;;;4.43;;
47669;SDS011;33408;52.062;11.722;2023-07-08T06:20:32;11.80;;;4.47;;
47669;SDS011;33408;52.062;11.722;2023-07-08T06:22:58;10.30;;;4.30;;
47669;SDS011;33408;52.062;11.722;2023-07-08T06:25:25;6.38;;;4.20;;
47669;SDS011;33408;52.062;11.722;2023-07-08T06:27:51;6.53;;;4.25;;
47669;SDS011;33408;52.062;11.722;2023-07-08T06:30:18;7.47;;;4.75;;
47669;SDS011;33408;52.062;11.722;2023-07-08T06:32:46;7.68;;;4.88;;
47669;SDS011;33408;52.062;11.722;2023-07-08T06:35:12;7.38;;;4.32;;
47669;SDS011;33408;52.062;11.722;2023-07-08T06:37:39;9.27;;;4.30;;
47669;SDS011;33408;52.062;11.722;2023-07-08T06:40:07;7.38;;;4.18;;
47669;SDS011;33408;52.062;11.722;2023-07-08T06:42:34;6.85;;;4.00;;
47669;SDS011;33408;52.062;11.722;2023-07-08T06:45:00;8.15;;;4.15;;
47669;SDS011;33408;52.062;11.722;2023-07-08T06:47:27;9.20;;;4.57;;
47669;SDS011;33408;52.062;11.722;2023-07-08T06:49:55;6.88;;;4.15;;
47669;SDS011;33408;52.062;11.722;2023-07-08T06:52:22;8.88;;;4.82;;
47669;SDS011;33408;52.062;11.722;2023-07-08T06:54:48;7.60;;;4.60;;
47669;SDS011;33408;52.062;11.722;2023-07-08T06:57:15;14.05;;;4.40;;
47669;SDS011;33408;52.062;11.722;2023-07-08T06:59:41;9.55;;;4.38;;
47669;SDS011;33408;52.062;11.722;2023-07-08T07:02:08;7.60;;;4.03;;
47669;SDS011;33408;52.062;11.722;2023-07-08T07:04:35;7.45;;;4.15;;
47669;SDS011;33408;52.062;11.722;2023-07-08T07:07:03;6.75;;;3.97;;
47669;SDS011;33408;52.062;11.722;2023-07-08T07:09:30;7.05;;;3.90;;
47669;SDS011;33408;52.062;11.722;2023-07-08T07:11:56;9.10;;;4.10;;
47669;SDS011;33408;52.062;11.722;2023-07-08T07:14:23;8.10;;;4.15;;
47669;SDS011;33408;52.062;11.722;2023-07-08T07:16:49;8.73;;;4.00;;
47669;SDS011;33408;52.062;11.722;2023-07-08T07:19:16;8.07;;;4.07;;
47669;SDS011;33408;52.062;11.722;2023-07-08T07:21:42;6.30;;;4.30;;
47669;SDS011;33408;52.062;11.722;2023-07-08T07:24:10;8.07;;;4.18;;
47669;SDS011;33408;52.062;11.722;2023-07-08T07:26:37;7.05;;;3.67;;
47669;SDS011;33408;52.062;11.722;2023-07-08T07:29:04;5.70;;;3.15;;
47669;SDS011;33408;52.062;11.722;2023-07-08T07:31:30;6.25;;;3.83;;
47669;SDS011;33408;52.062;11.722;2023-07-08T07:33:58;7.75;;;3.63;;
47669;SDS011;33408;52.062;11.722;2023-07-08T07:36:25;9.25;;;4.35;;
47669;SDS011;33408;52.062;11.722;2023-07-08T07:38:51;7.95;;;4.03;;
47669;SDS011;33408;52.062;11.722;2023-07-08T07:41:19;7.45;;;3.83;;
47669;SDS011;33408;52.062;11.722;2023-07-08T07:43:46;7.20;;;3.65;;
47669;SDS011;33408;52.062;11.722;2023-07-08T07:46:12;7.25;;;4.10;;
47669;SDS011;33408;52.062;11.722;2023-07-08T07:48:39;6.43;;;3.83;;
47669;SDS011;33408;52.062;11.722;2023-07-08T07:51:07;7.57;;;3.53;;
47669;SDS011;33408;52.062;11.722;2023-07-08T07:53:35;7.15;;;4.05;;
47669;SDS011;33408;52.062;11.722;2023-07-08T07:56:02;8.52;;;3.17;;
47669;SDS011;33408;52.062;11.722;2023-07-08T07:58:31;6.25;;;3.53;;
47669;SDS011;33408;52.062;11.722;2023-07-08T08:00:58;7.03;;;3.78;;
47669;SDS011;33408;52.062;11.722;2023-07-08T08:03:25;6.65;;;4.07;;
47669;SDS011;33408;52.062;11.722;2023-07-08T08:05:52;5.85;;;3.22;;
47669;SDS011;33408;52.062;11.722;2023-07-08T08:08:19;7.07;;;3.47;;
47669;SDS011;33408;52.062;11.722;2023-07-08T08:10:47;6.43;;;3.67;;
47669;SDS011;33408;52.062;11.722;2023-07-08T08:13:14;8.32;;;4.05;;
47669;SDS011;33408;52.062;11.722;2023-07-08T08:15:42;7.95;;;3.40;;
47669;SDS011;33408;52.062;11.722;2023-07-08T08:18:12;6.75;;;3.55;;
47669;SDS011;33408;52.062;11.722;2023-07-08T08:20:38;7.28;;;3.40;;
47669;SDS011;33408;52.062;11.722;2023-07-08T08:23:06;7.25;;;3.10;;
47669;SDS011;33408;52.062;11.722;2023-07-08T08:25:32;6.88;;;3.40;;
47669;SDS011;33408;52.062;11.722;2023-07-08T08:27:59;8.25;;;3.63;;
47669;SDS011;33408;52.062;11.722;2023-07-08T08:30:27;6.68;;;3.50;;
47669;SDS011;33408;52.062;11.722;2023-07-08T08:32:55;7.18;;;3.10;;
47669;SDS011;33408;52.062;11.722;2023-07-08T08:35:21;6.65;;;3.22;;
47669;SDS011;33408;52.062;11.722;2023-07-08T08:37:48;7.95;;;3.53;;
47669;SDS011;33408;52.062;11.722;2023-07-08T08:40:15;8.77;;;4.28;;
47669;SDS011;33408;52.062;11.722;2023-07-08T08:42:44;7.18;;;3.60;;
47669;SDS011;33408;52.062;11.722;2023-07-08T08:45:15;7.65;;;3.40;;
47669;SDS011;33408;52.062;11.722;2023-07-08T08:50:24;7.28;;;3.65;;
47669;SDS011;33408;52.062;11.722;2023-07-08T08:52:55;7.90;;;3.42;;
47669;SDS011;33408;52.062;11.722;2023-07-08T08:55:23;8.23;;;3.15;;
47669;SDS011;33408;52.062;11.722;2023-07-08T08:57:52;7.20;;;3.38;;
47669;SDS011;33408;52.062;11.722;2023-07-08T09:00:28;7.82;;;3.20;;
47669;SDS011;33408;52.062;11.722;2023-07-08T09:03:01;5.55;;;3.15;;
47669;SDS011;33408;52.062;11.722;2023-07-08T09:05:36;6.35;;;3.20;;
47669;SDS011;33408;52.062;11.722;2023-07-08T09:08:03;9.30;;;3.60;;
47669;SDS011;33408;52.062;11.722;2023-07-08T09:10:40;8.45;;;3.88;;
47669;SDS011;33408;52.062;11.722;2023-07-08T09:13:12;5.72;;;3.33;;
47669;SDS011;33408;52.062;11.722;2023-07-08T09:15:45;7.55;;;3.70;;
47669;SDS011;33408;52.062;11.722;2023-07-08T09:18:14;6.85;;;3.30;;
47669;SDS011;33408;52.062;11.722;2023-07-08T09:20:48;7.45;;;3.47;;
47669;SDS011;33408;52.062;11.722;2023-07-08T09:23:17;10.82;;;3.70;;
47669;SDS011;33408;52.062;11.722;2023-07-08T09:25:49;6.28;;;3.33;;
47669;SDS011;33408;52.062;11.722;2023-07-08T09:28:19;12.68;;;3.75;;
47669;SDS011;33408;52.062;11.722;2023-07-08T09:30:46;7.43;;;3.45;;
47669;SDS011;33408;52.062;11.722;2023-07-08T09:33:14;7.00;;;3.40;;
47669;SDS011;33408;52.062;11.722;2023-07-08T09:35:42;7.10;;;3.35;;
47669;SDS011;33408;52.062;11.722;2023-07-08T09:38:14;6.45;;;3.45;;
47669;SDS011;33408;52.062;11.722;2023-07-08T09:40:44;7.38;;;3.13;;
47669;SDS011;33408;52.062;11.722;2023-07-08T09:43:16;7.25;;;3.42;;
47669;SDS011;33408;52.062;11.722;2023-07-08T09:45:50;7.43;;;3.58;;
47669;SDS011;33408;52.062;11.722;2023-07-08T09:48:18;7.07;;;3.53;;
47669;SDS011;33408;52.062;11.722;2023-07-08T09:50:47;5.72;;;2.80;;
47669;SDS011;33408;52.062;11.722;2023-07-08T09:53:16;6.50;;;3.53;;
47669;SDS011;33408;52.062;11.722;2023-07-08T09:55:43;5.97;;;3.30;;
47669;SDS011;33408;52.062;11.722;2023-07-08T09:58:11;4.93;;;2.80;;
47669;SDS011;33408;52.062;11.722;2023-07-08T10:00:41;10.20;;;3.67;;
47669;SDS011;33408;52.062;11.722;2023-07-08T10:03:11;8.43;;;3.78;;
47669;SDS011;33408;52.062;11.722;2023-07-08T10:05:45;9.05;;;3.45;;
47669;SDS011;33408;52.062;11.722;2023-07-08T10:08:14;6.00;;;3.05;;
47669;SDS011;33408;52.062;11.722;2023-07-08T10:10:45;10.23;;;3.30;;
47669;SDS011;33408;52.062;11.722;2023-07-08T10:13:16;6.13;;;3.00;;
47669;SDS011;33408;52.062;11.722;2023-07-08T10:15:46;7.85;;;3.30;;
47669;SDS011;33408;52.062;11.722;2023-07-08T10:18:17;6.07;;;3.40;;
47669;SDS011;33408;52.062;11.722;2023-07-08T10:20:54;6.85;;;3.40;;
47669;SDS011;33408;52.062;11.722;2023-07-08T10:23:27;10.10;;;3.45;;
47669;SDS011;33408;52.062;11.722;2023-07-08T10:26:08;8.25;;;3.15;;
47669;SDS011;33408;52.062;11.722;2023-07-08T10:28:44;6.13;;;3.10;;
47669;SDS011;33408;52.062;11.722;2023-07-08T10:31:24;9.07;;;3.28;;
47669;SDS011;33408;52.062;11.722;2023-07-08T10:34:00;6.30;;;3.15;;
47669;SDS011;33408;52.062;11.722;2023-07-08T10:36:41;8.23;;;3.08;;
47669;SDS011;33408;52.062;11.722;2023-07-08T10:39:23;9.73;;;3.25;;
47669;SDS011;33408;52.062;11.722;2023-07-08T10:42:08;8.00;;;3.30;;
47669;SDS011;33408;52.062;11.722;2023-07-08T10:44:45;7.13;;;3.20;;
47669;SDS011;33408;52.062;11.722;2023-07-08T10:47:25;7.75;;;3.20;;
47669;SDS011;33408;52.062;11.722;2023-07-08T10:50:03;8.30;;;3.22;;
47669;SDS011;33408;52.062;11.722;2023-07-08T10:52:48;6.47;;;3.00;;
47669;SDS011;33408;52.062;11.722;2023-07-08T10:55:37;6.78;;;2.97;;
47669;SDS011;33408;52.062;11.722;2023-07-08T10:58:25;5.22;;;2.90;;
47669;SDS011;33408;52.062;11.722;2023-07-08T11:01:14;8.30;;;2.80;;
47669;SDS011;33408;52.062;11.722;2023-07-08T11:03:55;5.13;;;2.78;;
47669;SDS011;33408;52.062;11.722;2023-07-08T11:06:45;5.28;;;2.63;;
47669;SDS011;33408;52.062;11.722;2023-07-08T11:09:16;6.30;;;3.08;;
47669;SDS011;33408;52.062;11.722;2023-07-08T11:11:49;6.03;;;3.03;;
47669;SDS011;33408;52.062;11.722;2023-07-08T11:14:22;8.45;;;3.35;;
47669;SDS011;33408;52.062;11.722;2023-07-08T11:16:53;5.80;;;2.90;;
47669;SDS011;33408;52.062;11.722;2023-07-08T11:19:29;5.88;;;2.70;;
47669;SDS011;33408;52.062;11.722;2023-07-08T11:22:12;7.47;;;3.03;;
47669;SDS011;33408;52.062;11.722;2023-07-08T11:24:42;6.75;;;3.25;;
47669;SDS011;33408;52.062;11.722;2023-07-08T11:27:15;6.82;;;2.97;;
47669;SDS011;33408;52.062;11.722;2023-07-08T11:29:45;5.32;;;2.45;;
47669;SDS011;33408;52.062;11.722;2023-07-08T11:32:15;5.40;;;2.80;;
47669;SDS011;33408;52.062;11.722;2023-07-08T11:34:44;4.68;;;2.58;;
47669;SDS011;33408;52.062;11.722;2023-07-08T11:37:14;7.50;;;2.95;;
47669;SDS011;33408;52.062;11.722;2023-07-08T11:39:42;6.75;;;2.65;;
47669;SDS011;33408;52.062;11.722;2023-07-08T11:42:15;5.95;;;2.88;;
47669;SDS011;33408;52.062;11.722;2023-07-08T11:44:46;7.38;;;2.80;;
47669;SDS011;33408;52.062;11.722;2023-07-08T11:47:18;6.32;;;2.80;;
47669;SDS011;33408;52.062;11.722;2023-07-08T11:49:46;7.13;;;2.75;;
47669;SDS011;33408;52.062;11.722;2023-07-08T11:52:16;5.13;;;2.80;;
47669;SDS011;33408;52.062;11.722;2023-07-08T11:54:45;4.93;;;2.55;;
47669;SDS011;33408;52.062;11.722;2023-07-08T11:57:17;6.38;;;2.78;;
47669;SDS011;33408;52.062;11.722;2023-07-08T11:59:56;7.25;;;3.17;;
47669;SDS011;33408;52.062;11.722;2023-07-08T12:02:47;5.20;;;2.67;;
47669;SDS011;33408;52.062;11.722;2023-07-08T12:05:16;7.20;;;2.85;;
47669;SDS011;33408;52.062;11.722;2023-07-08T12:07:44;6.80;;;3.08;;
47669;SDS011;33408;52.062;11.722;2023-07-08T12:10:15;5.30;;;2.65;;
47669;SDS011;33408;52.062;11.722;2023-07-08T12:12:45;6.43;;;2.90;;
47669;SDS011;33408;52.062;11.722;2023-07-08T12:15:14;5.95;;;3.00;;
47669;SDS011;33408;52.062;11.722;2023-07-08T12:17:47;5.65;;;3.13;;
47669;SDS011;33408;52.062;11.722;2023-07-08T12:20:17;4.78;;;2.47;;
47669;SDS011;33408;52.062;11.722;2023-07-08T12:22:47;6.20;;;2.78;;
47669;SDS011;33408;52.062;11.722;2023-07-08T12:25:14;7.88;;;2.55;;
47669;SDS011;33408;52.062;11.722;2023-07-08T12:27:43;8.40;;;2.70;;
47669;SDS011;33408;52.062;11.722;2023-07-08T12:30:12;5.18;;;2.63;;
47669;SDS011;33408;52.062;11.722;2023-07-08T12:32:40;5.78;;;2.47;;
47669;SDS011;33408;52.062;11.722;2023-07-08T12:35:08;6.00;;;2.85;;
47669;SDS011;33408;52.062;11.722;2023-07-08T12:37:45;6.00;;;2.63;;
47669;SDS011;33408;52.062;11.722;2023-07-08T12:40:12;8.32;;;3.03;;
47669;SDS011;33408;52.062;11.722;2023-07-08T12:42:40;5.63;;;2.70;;
47669;SDS011;33408;52.062;11.722;2023-07-08T12:45:13;5.18;;;2.40;;
47669;SDS011;33408;52.062;11.722;2023-07-08T12:47:40;8.52;;;2.58;;
47669;SDS011;33408;52.062;11.722;2023-07-08T12:50:08;7.05;;;3.08;;
47669;SDS011;33408;52.062;11.722;2023-07-08T12:52:36;5.85;;;2.53;;
47669;SDS011;33408;52.062;11.722;2023-07-08T12:55:03;7.03;;;3.03;;
47669;SDS011;33408;52.062;11.722;2023-07-08T12:57:30;6.20;;;2.65;;
47669;SDS011;33408;52.062;11.722;2023-07-08T12:59:57;5.45;;;2.58;;
47669;SDS011;33408;52.062;11.722;2023-07-08T13:02:25;6.80;;;2.60;;
47669;SDS011;33408;52.062;11.722;2023-07-08T13:04:55;7.75;;;2.83;;
47669;SDS011;33408;52.062;11.722;2023-07-08T13:07:28;4.97;;;2.42;;
47669;SDS011;33408;52.062;11.722;2023-07-08T13:10:00;5.60;;;2.60;;
47669;SDS011;33408;52.062;11.722;2023-07-08T13:12:28;7.78;;;2.80;;
47669;SDS011;33408;52.062;11.722;2023-07-08T13:14:55;6.30;;;2.75;;
47669;SDS011;33408;52.062;11.722;2023-07-08T13:17:26;5.97;;;2.60;;
47669;SDS011;33408;52.062;11.722;2023-07-08T13:19:53;6.03;;;2.67;;
47669;SDS011;33408;52.062;11.722;2023-07-08T13:22:22;5.15;;;2.65;;
47669;SDS011;33408;52.062;11.722;2023-07-08T13:24:58;7.93;;;3.05;;
47669;SDS011;33408;52.062;11.722;2023-07-08T13:27:25;6.40;;;2.70;;
47669;SDS011;33408;52.062;11.722;2023-07-08T13:29:52;6.25;;;2.60;;
47669;SDS011;33408;52.062;11.722;2023-07-08T13:32:20;5.65;;;2.65;;
47669;SDS011;33408;52.062;11.722;2023-07-08T13:34:49;5.35;;;2.72;;
47669;SDS011;33408;52.062;11.722;2023-07-08T13:37:16;6.50;;;2.55;;
47669;SDS011;33408;52.062;11.722;2023-07-08T13:39:46;5.43;;;2.95;;
47669;SDS011;33408;52.062;11.722;2023-07-08T13:42:13;6.03;;;2.47;;
47669;SDS011;33408;52.062;11.722;2023-07-08T13:44:43;7.63;;;2.58;;
47669;SDS011;33408;52.062;11.722;2023-07-08T13:47:23;5.93;;;2.97;;
47669;SDS011;33408;52.062;11.722;2023-07-08T13:49:58;8.57;;;2.75;;
47669;SDS011;33408;52.062;11.722;2023-07-08T13:52:31;5.85;;;3.00;;
47669;SDS011;33408;52.062;11.722;2023-07-08T13:54:58;5.38;;;2.72;;
47669;SDS011;33408;52.062;11.722;2023-07-08T13:57:29;6.85;;;2.58;;
47669;SDS011;33408;52.062;11.722;2023-07-08T13:59:59;7.22;;;3.50;;
47669;SDS011;33408;52.062;11.722;2023-07-08T14:02:26;7.53;;;3.13;;
47669;SDS011;33408;52.062;11.722;2023-07-08T14:04:57;8.40;;;3.13;;
47669;SDS011;33408;52.062;11.722;2023-07-08T14:07:26;5.75;;;2.45;;
47669;SDS011;33408;52.062;11.722;2023-07-08T14:09:54;8.57;;;2.75;;
47669;SDS011;33408;52.062;11.722;2023-07-08T14:12:23;9.10;;;2.58;;
47669;SDS011;33408;52.062;11.722;2023-07-08T14:14:50;6.18;;;2.42;;
47669;SDS011;33408;52.062;11.722;2023-07-08T14:17:18;5.63;;;2.60;;
47669;SDS011;33408;52.062;11.722;2023-07-08T14:19:47;5.43;;;2.88;;
47669;SDS011;33408;52.062;11.722;2023-07-08T14:22:19;6.60;;;2.83;;
47669;SDS011;33408;52.062;11.722;2023-07-08T14:24:48;5.30;;;2.60;;
47669;SDS011;33408;52.062;11.722;2023-07-08T14:27:15;5.47;;;2.50;;
47669;SDS011;33408;52.062;11.722;2023-07-08T14:29:42;5.43;;;2.58;;
47669;SDS011;33408;52.062;11.722;2023-07-08T14:32:14;5.13;;;2.58;;
47669;SDS011;33408;52.062;11.722;2023-07-08T14:34:48;4.90;;;2.70;;
47669;SDS011;33408;52.062;11.722;2023-07-08T14:37:18;6.68;;;3.20;;
47669;SDS011;33408;52.062;11.722;2023-07-08T14:39:46;4.72;;;2.30;;
47669;SDS011;33408;52.062;11.722;2023-07-08T14:42:13;5.82;;;3.10;;
47669;SDS011;33408;52.062;11.722;2023-07-08T14:44:42;6.93;;;2.78;;
47669;SDS011;33408;52.062;11.722;2023-07-08T14:47:10;5.00;;;2.88;;